sensor_id;sensor_type;location;lat;lon;timestamp;pressure;altitude;pressure_sealevel;temperature;humidity
37892;BME280;45797;47.466;9.486;2023-04-05T00:03:20;96163.00;;;4.15;50.09
37892;BME280;45797;47.466;9.486;2023-04-05T00:08:21;96157.03;;;4.13;50.36
37892;BME280;45797;47.466;9.486;2023-04-05T00:13:25;96155.28;;;4.14;50.71
37892;BME280;45797;47.466;9.486;2023-04-05T00:18:25;96161.31;;;4.14;50.53
37892;BME280;45797;47.466;9.486;2023-04-05T00:23:26;96157.16;;;4.10;50.81
37892;BME280;45797;47.466;9.486;2023-04-05T00:28:26;96152.91;;;4.09;50.66
37892;BME280;45797;47.466;9.486;2023-04-05T00:33:26;96139.09;;;4.09;50.67
37892;BME280;45797;47.466;9.486;2023-04-05T00:38:26;96139.13;;;4.07;50.95
37892;BME280;45797;47.466;9.486;2023-04-05T00:43:26;96135.84;;;4.04;51.23
37892;BME280;45797;47.466;9.486;2023-04-05T00:48:28;96129.81;;;4.03;51.08
37892;BME280;45797;47.466;9.486;2023-04-05T00:53:28;96116.16;;;3.99;50.92
37892;BME280;45797;47.466;9.486;2023-04-05T00:58:29;96123.13;;;3.97;51.24
37892;BME280;45797;47.466;9.486;2023-04-05T01:03:31;96120.59;;;3.96;51.06
37892;BME280;45797;47.466;9.486;2023-04-05T01:08:43;96106.25;;;3.89;51.23
37892;BME280;45797;47.466;9.486;2023-04-05T01:13:45;96101.22;;;3.84;51.40
37892;BME280;45797;47.466;9.486;2023-04-05T01:18:45;96098.69;;;3.83;51.23
37892;BME280;45797;47.466;9.486;2023-04-05T01:24:04;96096.34;;;3.77;51.26
37892;BME280;45797;47.466;9.486;2023-04-05T01:34:50;96081.38;;;3.63;52.06
37892;BME280;45797;47.466;9.486;2023-04-05T01:39:52;96079.63;;;3.63;51.94
37892;BME280;45797;47.466;9.486;2023-04-05T01:44:56;96082.16;;;3.65;51.41
37892;BME280;45797;47.466;9.486;2023-04-05T01:49:56;96078.03;;;3.61;51.94
37892;BME280;45797;47.466;9.486;2023-04-05T01:54:59;96066.28;;;3.52;51.96
37892;BME280;45797;47.466;9.486;2023-04-05T01:59:59;96071.56;;;3.49;52.26
37892;BME280;45797;47.466;9.486;2023-04-05T02:05:00;96064.00;;;3.44;52.78
37892;BME280;45797;47.466;9.486;2023-04-05T02:10:00;96069.34;;;3.40;52.25
37892;BME280;45797;47.466;9.486;2023-04-05T02:15:01;96066.94;;;3.35;52.65
37892;BME280;45797;47.466;9.486;2023-04-05T02:20:01;96063.75;;;3.29;53.17
37892;BME280;45797;47.466;9.486;2023-04-05T02:25:04;96051.84;;;3.25;52.28
37892;BME280;45797;47.466;9.486;2023-04-05T02:30:05;96058.00;;;3.21;52.87
37892;BME280;45797;47.466;9.486;2023-04-05T02:35:06;96052.13;;;3.17;52.77
37892;BME280;45797;47.466;9.486;2023-04-05T02:40:10;96052.25;;;3.14;53.02
37892;BME280;45797;47.466;9.486;2023-04-05T02:45:11;96044.66;;;3.09;53.10
37892;BME280;45797;47.466;9.486;2023-04-05T02:50:11;96042.25;;;3.05;52.92
37892;BME280;45797;47.466;9.486;2023-04-05T02:55:16;96040.59;;;3.04;52.79
37892;BME280;45797;47.466;9.486;2023-04-05T03:00:18;96041.59;;;3.00;53.29
37892;BME280;45797;47.466;9.486;2023-04-05T03:05:18;96030.59;;;2.95;52.89
37892;BME280;45797;47.466;9.486;2023-04-05T03:10:23;96029.06;;;2.89;53.48
37892;BME280;45797;47.466;9.486;2023-04-05T03:15:32;96036.13;;;2.84;53.46
37892;BME280;45797;47.466;9.486;2023-04-05T03:20:38;96030.25;;;2.80;53.61
37892;BME280;45797;47.466;9.486;2023-04-05T03:25:41;96025.16;;;2.79;53.40
37892;BME280;45797;47.466;9.486;2023-04-05T03:30:43;96021.84;;;2.75;53.32
37892;BME280;45797;47.466;9.486;2023-04-05T03:35:50;96010.81;;;2.70;53.56
37892;BME280;45797;47.466;9.486;2023-04-05T03:40:51;96016.13;;;2.67;53.99
37892;BME280;45797;47.466;9.486;2023-04-05T03:45:51;96006.84;;;2.62;53.78
37892;BME280;45797;47.466;9.486;2023-04-05T03:50:51;96005.34;;;2.56;53.83
37892;BME280;45797;47.466;9.486;2023-04-05T03:55:54;96011.50;;;2.52;53.97
37892;BME280;45797;47.466;9.486;2023-04-05T04:01:06;96012.75;;;2.42;54.38
37892;BME280;45797;47.466;9.486;2023-04-05T04:06:07;96002.59;;;2.37;54.30
37892;BME280;45797;47.466;9.486;2023-04-05T04:11:07;96007.00;;;2.34;54.13
37892;BME280;45797;47.466;9.486;2023-04-05T04:16:11;96015.88;;;2.26;54.11
37892;BME280;45797;47.466;9.486;2023-04-05T04:21:29;96010.03;;;2.21;54.73
37892;BME280;45797;47.466;9.486;2023-04-05T04:26:50;96000.69;;;2.17;54.90
37892;BME280;45797;47.466;9.486;2023-04-05T04:32:15;96006.94;;;2.12;55.03
37892;BME280;45797;47.466;9.486;2023-04-05T04:37:53;96013.16;;;2.06;54.77
37892;BME280;45797;47.466;9.486;2023-04-05T04:43:20;96009.00;;;2.02;55.04
37892;BME280;45797;47.466;9.486;2023-04-05T04:49:04;96016.88;;;1.99;54.78
37892;BME280;45797;47.466;9.486;2023-04-05T04:54:07;96019.47;;;1.97;54.65
37892;BME280;45797;47.466;9.486;2023-04-05T04:59:07;96010.16;;;1.93;54.58
37892;BME280;45797;47.466;9.486;2023-04-05T05:04:08;96013.53;;;1.95;55.08
37892;BME280;45797;47.466;9.486;2023-04-05T05:09:10;96019.47;;;1.97;55.05
37892;BME280;45797;47.466;9.486;2023-04-05T05:14:20;96023.72;;;2.00;54.47
37892;BME280;45797;47.466;9.486;2023-04-05T05:19:20;96023.59;;;2.03;55.11
37892;BME280;45797;47.466;9.486;2023-04-05T05:24:24;96023.41;;;2.09;54.81
37892;BME280;45797;47.466;9.486;2023-04-05T05:29:25;96023.06;;;2.18;54.66
37892;BME280;45797;47.466;9.486;2023-04-05T05:34:25;96021.84;;;2.28;54.33
37892;BME280;45797;47.466;9.486;2023-04-05T05:39:30;96019.81;;;2.37;54.05
37892;BME280;45797;47.466;9.486;2023-04-05T05:44:30;96027.13;;;2.49;54.36
37892;BME280;45797;47.466;9.486;2023-04-05T05:49:30;96028.34;;;2.62;53.68
37892;BME280;45797;47.466;9.486;2023-04-05T05:54:30;96027.03;;;2.74;53.63
37892;BME280;45797;47.466;9.486;2023-04-05T05:59:30;96028.16;;;2.90;53.70
37892;BME280;45797;47.466;9.486;2023-04-05T06:04:31;96033.66;;;3.04;53.29
37892;BME280;45797;47.466;9.486;2023-04-05T06:09:31;96030.41;;;3.21;53.11
37892;BME280;45797;47.466;9.486;2023-04-05T06:14:34;96031.63;;;3.34;53.31
37892;BME280;45797;47.466;9.486;2023-04-05T06:19:34;96035.97;;;3.54;52.63
37892;BME280;45797;47.466;9.486;2023-04-05T06:24:34;96044.75;;;3.72;52.71
37892;BME280;45797;47.466;9.486;2023-04-05T06:29:34;96036.41;;;3.86;52.25
37892;BME280;45797;47.466;9.486;2023-04-05T06:34:35;96037.84;;;3.93;52.61
37892;BME280;45797;47.466;9.486;2023-04-05T06:39:35;96039.91;;;4.05;52.47
37892;BME280;45797;47.466;9.486;2023-04-05T06:44:35;96036.81;;;4.17;52.13
37892;BME280;45797;47.466;9.486;2023-04-05T06:49:36;96026.88;;;4.27;52.01
37892;BME280;45797;47.466;9.486;2023-04-05T06:54:37;96033.97;;;4.42;52.41
37892;BME280;45797;47.466;9.486;2023-04-05T06:59:38;96032.94;;;4.46;52.07
37892;BME280;45797;47.466;9.486;2023-04-05T07:04:38;96033.81;;;4.45;52.79
37892;BME280;45797;47.466;9.486;2023-04-05T07:09:39;96046.81;;;4.25;53.06
37892;BME280;45797;47.466;9.486;2023-04-05T07:14:39;96039.72;;;4.10;53.19
37892;BME280;45797;47.466;9.486;2023-04-05T07:19:39;96038.41;;;4.20;52.59
37892;BME280;45797;47.466;9.486;2023-04-05T07:24:40;96042.28;;;4.30;52.77
37892;BME280;45797;47.466;9.486;2023-04-05T07:29:40;96040.50;;;4.51;52.49
37892;BME280;45797;47.466;9.486;2023-04-05T07:34:42;96035.91;;;4.57;52.12
37892;BME280;45797;47.466;9.486;2023-04-05T07:39:42;96040.38;;;4.73;52.73
37892;BME280;45797;47.466;9.486;2023-04-05T07:44:43;96041.66;;;4.83;52.50
37892;BME280;45797;47.466;9.486;2023-04-05T07:49:43;96046.91;;;5.00;51.64
37892;BME280;45797;47.466;9.486;2023-04-05T07:54:43;96051.56;;;5.12;52.07
37892;BME280;45797;47.466;9.486;2023-04-05T07:59:44;96060.88;;;5.16;52.46
37892;BME280;45797;47.466;9.486;2023-04-05T08:04:46;96058.63;;;5.09;52.28
37892;BME280;45797;47.466;9.486;2023-04-05T08:09:46;96057.50;;;5.14;52.15
37892;BME280;45797;47.466;9.486;2023-04-05T08:14:47;96053.16;;;5.15;52.60
37892;BME280;45797;47.466;9.486;2023-04-05T08:19:47;96055.09;;;5.29;52.08
37892;BME280;45797;47.466;9.486;2023-04-05T08:24:48;96058.50;;;5.31;52.36
37892;BME280;45797;47.466;9.486;2023-04-05T08:29:48;96061.41;;;5.42;52.23
37892;BME280;45797;47.466;9.486;2023-04-05T08:34:48;96060.81;;;5.54;52.20
37892;BME280;45797;47.466;9.486;2023-04-05T08:39:48;96061.25;;;5.45;52.75
37892;BME280;45797;47.466;9.486;2023-04-05T08:44:51;96060.13;;;5.68;52.04
37892;BME280;45797;47.466;9.486;2023-04-05T08:49:52;96060.47;;;5.79;52.36
37892;BME280;45797;47.466;9.486;2023-04-05T08:54:53;96062.13;;;5.99;52.10
37892;BME280;45797;47.466;9.486;2023-04-05T08:59:54;96070.44;;;6.06;51.72
37892;BME280;45797;47.466;9.486;2023-04-05T09:04:55;96062.19;;;6.15;51.58
37892;BME280;45797;47.466;9.486;2023-04-05T09:09:57;96073.34;;;6.34;51.57
37892;BME280;45797;47.466;9.486;2023-04-05T09:14:59;96063.44;;;6.58;51.08
37892;BME280;45797;47.466;9.486;2023-04-05T09:20:00;96068.50;;;6.61;51.43
37892;BME280;45797;47.466;9.486;2023-04-05T09:25:00;96069.69;;;6.71;51.55
37892;BME280;45797;47.466;9.486;2023-04-05T09:30:00;96071.84;;;6.96;50.57
37892;BME280;45797;47.466;9.486;2023-04-05T09:35:01;96071.19;;;6.93;51.36
37892;BME280;45797;47.466;9.486;2023-04-05T09:40:05;96070.69;;;7.18;50.50
37892;BME280;45797;47.466;9.486;2023-04-05T09:45:06;96069.69;;;7.52;50.07
37892;BME280;45797;47.466;9.486;2023-04-05T09:55:25;96075.03;;;7.80;49.68
37892;BME280;45797;47.466;9.486;2023-04-05T10:00:28;96069.63;;;7.99;49.91
37892;BME280;45797;47.466;9.486;2023-04-05T10:05:30;96076.47;;;8.16;49.20
37892;BME280;45797;47.466;9.486;2023-04-05T10:10:35;96075.66;;;8.45;49.21
37892;BME280;45797;47.466;9.486;2023-04-05T10:15:37;96083.31;;;8.63;48.70
37892;BME280;45797;47.466;9.486;2023-04-05T10:20:42;96074.00;;;8.87;48.48
37892;BME280;45797;47.466;9.486;2023-04-05T10:26:07;96076.41;;;9.04;48.43
37892;BME280;45797;47.466;9.486;2023-04-05T10:31:28;96074.72;;;9.32;47.89
37892;BME280;45797;47.466;9.486;2023-04-05T10:41:54;96075.06;;;9.40;47.84
37892;BME280;45797;47.466;9.486;2023-04-05T10:46:58;96078.59;;;9.53;47.79
37892;BME280;45797;47.466;9.486;2023-04-05T10:52:01;96069.47;;;9.73;47.52
37892;BME280;45797;47.466;9.486;2023-04-05T10:57:04;96075.91;;;9.94;47.05
37892;BME280;45797;47.466;9.486;2023-04-05T11:02:05;96064.09;;;9.89;47.42
37892;BME280;45797;47.466;9.486;2023-04-05T11:07:14;96066.25;;;10.09;46.74
37892;BME280;45797;47.466;9.486;2023-04-05T11:12:14;96066.22;;;10.36;46.18
37892;BME280;45797;47.466;9.486;2023-04-05T11:17:26;96063.84;;;10.46;45.72
37892;BME280;45797;47.466;9.486;2023-04-05T11:22:28;96052.22;;;10.75;45.37
37892;BME280;45797;47.466;9.486;2023-04-05T11:27:33;96050.66;;;10.73;45.31
37892;BME280;45797;47.466;9.486;2023-04-05T11:32:41;96055.69;;;10.63;45.75
37892;BME280;45797;47.466;9.486;2023-04-05T11:43:08;96033.44;;;10.94;44.68
37892;BME280;45797;47.466;9.486;2023-04-05T11:48:11;96035.28;;;11.30;44.27
37892;BME280;45797;47.466;9.486;2023-04-05T11:53:16;96028.66;;;11.37;44.01
37892;BME280;45797;47.466;9.486;2023-04-05T11:58:24;96027.47;;;11.41;44.03
37892;BME280;45797;47.466;9.486;2023-04-05T12:03:26;96019.47;;;11.43;43.66
37892;BME280;45797;47.466;9.486;2023-04-05T12:13:41;96005.69;;;11.89;42.87
37892;BME280;45797;47.466;9.486;2023-04-05T12:18:41;96004.16;;;11.97;42.62
37892;BME280;45797;47.466;9.486;2023-04-05T12:23:41;96009.44;;;12.09;42.49
37892;BME280;45797;47.466;9.486;2023-04-05T12:28:52;95994.94;;;12.27;42.19
37892;BME280;45797;47.466;9.486;2023-04-05T12:33:58;95996.44;;;12.53;41.79
37892;BME280;45797;47.466;9.486;2023-04-05T12:38:59;96007.06;;;12.74;41.16
37892;BME280;45797;47.466;9.486;2023-04-05T12:49:26;95987.72;;;12.86;41.12
37892;BME280;45797;47.466;9.486;2023-04-05T12:54:27;96000.53;;;12.80;41.09
37892;BME280;45797;47.466;9.486;2023-04-05T12:59:27;95984.97;;;12.99;40.63
37892;BME280;45797;47.466;9.486;2023-04-05T13:04:27;95988.34;;;12.90;40.59
37892;BME280;45797;47.466;9.486;2023-04-05T13:09:28;95969.91;;;12.79;40.62
37892;BME280;45797;47.466;9.486;2023-04-05T13:14:30;95965.63;;;12.89;40.27
37892;BME280;45797;47.466;9.486;2023-04-05T13:19:30;95961.31;;;12.99;40.00
37892;BME280;45797;47.466;9.486;2023-04-05T13:24:30;95951.28;;;12.71;40.21
37892;BME280;45797;47.466;9.486;2023-04-05T13:29:30;95952.84;;;12.84;39.94
37892;BME280;45797;47.466;9.486;2023-04-05T13:34:30;95948.03;;;13.23;39.34
37892;BME280;45797;47.466;9.486;2023-04-05T13:39:31;95941.88;;;13.45;38.88
37892;BME280;45797;47.466;9.486;2023-04-05T13:44:31;95937.34;;;13.47;38.66
37892;BME280;45797;47.466;9.486;2023-04-05T13:49:31;95934.22;;;13.42;38.49
37892;BME280;45797;47.466;9.486;2023-04-05T13:54:32;95935.53;;;13.48;38.44
37892;BME280;45797;47.466;9.486;2023-04-05T13:59:33;95931.81;;;13.50;38.86
37892;BME280;45797;47.466;9.486;2023-04-05T14:04:33;95923.06;;;13.82;38.09
37892;BME280;45797;47.466;9.486;2023-04-05T14:09:33;95920.81;;;14.19;37.43
37892;BME280;45797;47.466;9.486;2023-04-05T14:14:34;95910.16;;;14.41;36.63
37892;BME280;45797;47.466;9.486;2023-04-05T14:19:34;95907.50;;;14.62;36.81
37892;BME280;45797;47.466;9.486;2023-04-05T14:24:35;95910.75;;;14.85;36.87
37892;BME280;45797;47.466;9.486;2023-04-05T14:29:35;95915.13;;;15.05;35.93
37892;BME280;45797;47.466;9.486;2023-04-05T14:34:35;95903.38;;;15.29;35.80
37892;BME280;45797;47.466;9.486;2023-04-05T14:39:35;95897.44;;;15.56;35.36
37892;BME280;45797;47.466;9.486;2023-04-05T14:44:36;95903.09;;;15.41;35.08
37892;BME280;45797;47.466;9.486;2023-04-05T14:49:36;95898.25;;;15.37;35.16
37892;BME280;45797;47.466;9.486;2023-04-05T14:54:36;95897.28;;;15.28;35.06
37892;BME280;45797;47.466;9.486;2023-04-05T14:59:36;95893.19;;;15.14;35.09
37892;BME280;45797;47.466;9.486;2023-04-05T15:04:37;95903.22;;;15.21;34.92
37892;BME280;45797;47.466;9.486;2023-04-05T15:09:37;95907.25;;;15.34;35.21
37892;BME280;45797;47.466;9.486;2023-04-05T15:14:37;95899.94;;;15.48;35.03
37892;BME280;45797;47.466;9.486;2023-04-05T15:19:37;95905.44;;;15.35;34.89
37892;BME280;45797;47.466;9.486;2023-04-05T15:24:38;95909.22;;;15.42;35.13
37892;BME280;45797;47.466;9.486;2023-04-05T15:29:40;95909.13;;;15.63;34.71
37892;BME280;45797;47.466;9.486;2023-04-05T15:34:40;95893.69;;;15.78;34.93
37892;BME280;45797;47.466;9.486;2023-04-05T15:39:41;95899.66;;;15.99;33.98
37892;BME280;45797;47.466;9.486;2023-04-05T15:44:41;95901.47;;;15.89;34.37
37892;BME280;45797;47.466;9.486;2023-04-05T15:49:42;95899.28;;;15.84;34.02
37892;BME280;45797;47.466;9.486;2023-04-05T15:54:43;95893.28;;;16.02;33.98
37892;BME280;45797;47.466;9.486;2023-04-05T15:59:43;95901.22;;;16.02;34.11
37892;BME280;45797;47.466;9.486;2023-04-05T16:04:43;95894.63;;;16.15;33.78
37892;BME280;45797;47.466;9.486;2023-04-05T16:09:44;95893.19;;;16.40;33.58
37892;BME280;45797;47.466;9.486;2023-04-05T16:14:45;95891.97;;;16.72;33.11
37892;BME280;45797;47.466;9.486;2023-04-05T16:19:46;95902.25;;;16.75;33.12
37892;BME280;45797;47.466;9.486;2023-04-05T16:24:46;95892.56;;;17.21;32.77
37892;BME280;45797;47.466;9.486;2023-04-05T16:29:47;95895.91;;;18.30;31.17
37892;BME280;45797;47.466;9.486;2023-04-05T16:34:48;95891.13;;;19.44;30.15
37892;BME280;45797;47.466;9.486;2023-04-05T16:39:48;95892.72;;;20.44;29.08
37892;BME280;45797;47.466;9.486;2023-04-05T16:44:48;95885.16;;;21.50;28.20
37892;BME280;45797;47.466;9.486;2023-04-05T16:49:48;95886.81;;;22.43;27.17
37892;BME280;45797;47.466;9.486;2023-04-05T16:54:49;95881.41;;;23.97;26.07
37892;BME280;45797;47.466;9.486;2023-04-05T16:59:49;95888.06;;;25.06;25.50
37892;BME280;45797;47.466;9.486;2023-04-05T17:04:49;95882.66;;;26.09;24.78
37892;BME280;45797;47.466;9.486;2023-04-05T17:09:50;95889.09;;;26.74;24.23
37892;BME280;45797;47.466;9.486;2023-04-05T17:14:50;95888.31;;;27.38;24.17
37892;BME280;45797;47.466;9.486;2023-04-05T17:19:50;95898.22;;;27.51;23.93
37892;BME280;45797;47.466;9.486;2023-04-05T17:24:52;95899.50;;;27.42;23.88
37892;BME280;45797;47.466;9.486;2023-04-05T17:29:52;95895.03;;;26.89;24.79
37892;BME280;45797;47.466;9.486;2023-04-05T17:34:53;95899.31;;;25.84;25.55
37892;BME280;45797;47.466;9.486;2023-04-05T17:39:53;95894.16;;;23.23;28.41
37892;BME280;45797;47.466;9.486;2023-04-05T17:44:53;95900.84;;;20.34;31.18
37892;BME280;45797;47.466;9.486;2023-04-05T17:49:53;95903.34;;;18.08;33.20
37892;BME280;45797;47.466;9.486;2023-04-05T17:54:55;95912.56;;;16.31;34.75
37892;BME280;45797;47.466;9.486;2023-04-05T17:59:55;95920.94;;;14.90;36.08
37892;BME280;45797;47.466;9.486;2023-04-05T18:04:57;95920.34;;;13.72;37.14
37892;BME280;45797;47.466;9.486;2023-04-05T18:09:57;95921.88;;;12.77;37.71
37892;BME280;45797;47.466;9.486;2023-04-05T18:14:57;95931.81;;;11.93;38.39
37892;BME280;45797;47.466;9.486;2023-04-05T18:19:58;95939.03;;;11.20;38.54
37892;BME280;45797;47.466;9.486;2023-04-05T18:24:58;95948.41;;;10.62;39.19
37892;BME280;45797;47.466;9.486;2023-04-05T18:29:58;95951.31;;;10.06;39.22
37892;BME280;45797;47.466;9.486;2023-04-05T18:34:59;95961.16;;;9.63;39.89
37892;BME280;45797;47.466;9.486;2023-04-05T18:39:59;95969.44;;;9.30;39.39
37892;BME280;45797;47.466;9.486;2023-04-05T18:45:00;95979.41;;;8.96;39.80
37892;BME280;45797;47.466;9.486;2023-04-05T18:50:00;95979.44;;;8.68;39.91
37892;BME280;45797;47.466;9.486;2023-04-05T18:55:06;95981.78;;;8.44;40.14
37892;BME280;45797;47.466;9.486;2023-04-05T19:00:07;95976.97;;;8.22;40.33
37892;BME280;45797;47.466;9.486;2023-04-05T19:05:08;95988.47;;;8.03;40.26
37892;BME280;45797;47.466;9.486;2023-04-05T19:10:09;95985.13;;;7.87;40.31
37892;BME280;45797;47.466;9.486;2023-04-05T19:15:09;95992.13;;;7.71;40.63
37892;BME280;45797;47.466;9.486;2023-04-05T19:20:11;95984.00;;;7.61;40.79
37892;BME280;45797;47.466;9.486;2023-04-05T19:25:12;95993.53;;;7.47;40.58
37892;BME280;45797;47.466;9.486;2023-04-05T19:30:12;95992.22;;;7.39;40.64
37892;BME280;45797;47.466;9.486;2023-04-05T19:35:15;95997.00;;;7.31;40.47
37892;BME280;45797;47.466;9.486;2023-04-05T19:40:20;95996.78;;;7.20;40.91
37892;BME280;45797;47.466;9.486;2023-04-05T19:45:28;95997.28;;;7.11;41.00
37892;BME280;45797;47.466;9.486;2023-04-05T19:50:46;96006.66;;;6.98;40.94
37892;BME280;45797;47.466;9.486;2023-04-05T19:55:46;96001.78;;;6.92;41.23
37892;BME280;45797;47.466;9.486;2023-04-05T20:00:46;96005.66;;;6.84;41.20
37892;BME280;45797;47.466;9.486;2023-04-05T20:06:22;96000.78;;;6.78;41.15
37892;BME280;45797;47.466;9.486;2023-04-05T20:11:21;96002.94;;;6.70;41.54
37892;BME280;45797;47.466;9.486;2023-04-05T20:16:26;96004.97;;;6.65;41.65
37892;BME280;45797;47.466;9.486;2023-04-05T20:21:27;95993.50;;;6.52;41.75
37892;BME280;45797;47.466;9.486;2023-04-05T20:26:31;95989.22;;;6.51;41.81
37892;BME280;45797;47.466;9.486;2023-04-05T20:31:32;96001.03;;;6.41;41.84
37892;BME280;45797;47.466;9.486;2023-04-05T20:36:35;96008.56;;;6.29;42.04
37892;BME280;45797;47.466;9.486;2023-04-05T20:41:36;96001.16;;;6.22;42.45
37892;BME280;45797;47.466;9.486;2023-04-05T20:46:36;96003.94;;;6.19;42.41
37892;BME280;45797;47.466;9.486;2023-04-05T20:51:37;95998.09;;;6.14;42.35
37892;BME280;45797;47.466;9.486;2023-04-05T20:56:37;96000.97;;;6.09;42.32
37892;BME280;45797;47.466;9.486;2023-04-05T21:01:37;96000.34;;;6.04;42.44
37892;BME280;45797;47.466;9.486;2023-04-05T21:06:37;96000.50;;;6.01;42.96
37892;BME280;45797;47.466;9.486;2023-04-05T21:11:38;95999.66;;;6.00;42.87
37892;BME280;45797;47.466;9.486;2023-04-05T21:16:39;95994.69;;;5.96;42.72
37892;BME280;45797;47.466;9.486;2023-04-05T21:21:39;95998.28;;;5.93;42.79
37892;BME280;45797;47.466;9.486;2023-04-05T21:26:39;95995.06;;;5.88;42.89
37892;BME280;45797;47.466;9.486;2023-04-05T21:31:40;95988.31;;;5.84;42.87
37892;BME280;45797;47.466;9.486;2023-04-05T21:36:40;95994.59;;;5.80;42.90
37892;BME280;45797;47.466;9.486;2023-04-05T21:41:40;95993.91;;;5.77;42.97
37892;BME280;45797;47.466;9.486;2023-04-05T21:46:41;96001.84;;;5.73;43.34
37892;BME280;45797;47.466;9.486;2023-04-05T21:51:41;96007.34;;;5.67;43.23
37892;BME280;45797;47.466;9.486;2023-04-05T21:56:41;96007.59;;;5.63;43.41
37892;BME280;45797;47.466;9.486;2023-04-05T22:01:42;96017.28;;;5.59;43.60
37892;BME280;45797;47.466;9.486;2023-04-05T22:06:42;96016.59;;;5.56;43.96
37892;BME280;45797;47.466;9.486;2023-04-05T22:11:43;96013.91;;;5.57;43.79
37892;BME280;45797;47.466;9.486;2023-04-05T22:16:43;96021.78;;;5.56;43.77
37892;BME280;45797;47.466;9.486;2023-04-05T22:21:43;96025.38;;;5.53;44.38
37892;BME280;45797;47.466;9.486;2023-04-05T22:26:43;96023.69;;;5.52;43.94
37892;BME280;45797;47.466;9.486;2023-04-05T22:31:44;96028.97;;;5.51;44.47
37892;BME280;45797;47.466;9.486;2023-04-05T22:36:44;96017.88;;;5.47;44.55
37892;BME280;45797;47.466;9.486;2023-04-05T22:41:44;96028.25;;;5.47;44.18
37892;BME280;45797;47.466;9.486;2023-04-05T22:46:45;96023.91;;;5.48;44.44
37892;BME280;45797;47.466;9.486;2023-04-05T22:51:45;96024.63;;;5.51;44.32
37892;BME280;45797;47.466;9.486;2023-04-05T22:56:45;96027.88;;;5.55;44.42
37892;BME280;45797;47.466;9.486;2023-04-05T23:01:45;96019.81;;;5.61;44.42
37892;BME280;45797;47.466;9.486;2023-04-05T23:06:46;96016.97;;;5.65;44.42
37892;BME280;45797;47.466;9.486;2023-04-05T23:11:46;96016.88;;;5.67;44.82
37892;BME280;45797;47.466;9.486;2023-04-05T23:16:48;96016.75;;;5.70;44.86
37892;BME280;45797;47.466;9.486;2023-04-05T23:21:48;96019.28;;;5.71;44.60
37892;BME280;45797;47.466;9.486;2023-04-05T23:26:49;96026.75;;;5.78;44.93
37892;BME280;45797;47.466;9.486;2023-04-05T23:31:49;96023.09;;;5.82;44.50
37892;BME280;45797;47.466;9.486;2023-04-05T23:36:51;96023.69;;;5.87;44.87
37892;BME280;45797;47.466;9.486;2023-04-05T23:41:52;96021.84;;;5.90;45.03
37892;BME280;45797;47.466;9.486;2023-04-05T23:46:52;96012.81;;;5.97;44.99
37892;BME280;45797;47.466;9.486;2023-04-05T23:51:53;96009.06;;;6.03;44.53
37892;BME280;45797;47.466;9.486;2023-04-05T23:56:53;96002.94;;;6.04;44.69
